Sankofa — 9GMV — position and weather

sailwx.info

Track history (hours):
 
Tides and Currents Weather Stations Pressure Air Temp Water Temp Dewpoint Dewpoint Depression Visibility Wind Speed Wind Dir Waves Ship Positions

Sankofa

Last reported at 2017-Nov-02 08:31 UTC. Time now 2017-Nov-19 01:14 UTC.
Position N 05°21' W 000°27'.
Warning: this ship's position is 16 days out of date.

Length 57 m; draft 5.2 m.

Type: Fishing. MMSI: 627163000.

Date/timePositionNaut miles runAvg speedWind from/ knotsBaromVisibWave heightAir tempDewpointWater temp
2017-Nov-02 08:31N 05°21' W 000°27'0 0.4
2017-Nov-02 08:20N 05°21' W 000°27'0 0.9
2017-Nov-02 07:59N 05°22' W 000°27'0 0.2
2017-Nov-02 07:22N 05°22' W 000°27'0 0.5
2017-Nov-02 07:00N 05°22' W 000°27'1 1.8
2017-Nov-02 06:28N 05°23' W 000°26'2 4.1
2017-Nov-02 05:57N 05°24' W 000°25'1 2.7
2017-Nov-02 05:27N 05°23' W 000°24'2 3.1
2017-Nov-02 04:50N 05°21' W 000°24'0 0.2
2017-Nov-02 03:38N 05°22' W 000°24'0 0.1
2017-Nov-02 03:19N 05°22' W 000°24'0 0.2
2017-Nov-02 03:00N 05°22' W 000°24'0 0.0
2017-Nov-02 02:13N 05°22' W 000°24'0 0.5
2017-Nov-02 02:00N 05°22' W 000°24'  
2017-Oct-29 14:48N 05°13' E 000°12'3 9.2
2017-Oct-29 14:30N 05°15' E 000°11'4 8.5
2017-Oct-29 14:01N 05°18' E 000°08'5 9.1
2017-Oct-29 13:31N 05°22' E 000°06'5 9.3
2017-Oct-29 13:01N 05°26' E 000°04'5 9.4
2017-Oct-29 12:30N 05°31' E 000°01'5 9.3
2017-Oct-29 12:00N 05°35' W 000°01'0 0.7
2017-Oct-29 11:31N 05°35' W 000°01'1 1.1
2017-Oct-29 11:01N 05°34' W 000°01'1 1.3
2017-Oct-29 10:30N 05°34' W 000°02'1 1.8
2017-Oct-29 10:01N 05°35' W 000°01'1 1.4
2017-Oct-29 09:30N 05°34' W 000°02'0 0.3
2017-Oct-29 09:01N 05°34' W 000°01'0 0.9
2017-Oct-29 08:31N 05°35' W 000°01'4 8.3
2017-Oct-29 08:01N 05°37' E 000°03'1 1.3
2017-Oct-29 07:31N 05°37' E 000°03'3 6.0
2017-Oct-29 07:00N 05°38' E 000°06'1 2.6
2017-Oct-29 06:30N 05°38' E 000°07'1 1.2
2017-Oct-29 06:00N 05°38' E 000°08'1 1.4
2017-Oct-29 05:31N 05°38' E 000°08'4 8.9
2017-Oct-29 05:01N 05°33' E 000°08'1 2.3
2017-Oct-29 04:31N 05°32' E 000°09'0 0.5
2017-Oct-29 04:00N 05°32' E 000°09'12 0.3
2017-Oct-27 12:02N 05°35' E 000°21'0 9.4
2017-Oct-27 11:59N 05°36' E 000°21'4 9.4
2017-Oct-27 11:30N 05°39' E 000°17'4 8.9
2017-Oct-27 11:01N 05°41' E 000°14'4 8.9
2017-Oct-27 10:30N 05°40' E 000°10'5 9.1
2017-Oct-27 10:00N 05°38' E 000°06'4 8.1
2017-Oct-27 09:31N 05°38' E 000°02'1 2.8
2017-Oct-27 09:00N 05°37' E 000°03'4 7.5
2017-Oct-27 08:30N 05°40' E 000°06'0 0.4
2017-Oct-27 08:00N 05°40' E 000°06'3 5.8
2017-Oct-27 07:30N 05°37' E 000°05'1 1.9
2017-Oct-27 07:00N 05°37' E 000°04'3 6.4
2017-Oct-27 06:30N 05°39' E 000°07'0 0.1
2017-Oct-27 06:00N 05°39' E 000°07'0 0.5
2017-Oct-27 05:30N 05°39' E 000°07'2 3.1
2017-Oct-27 05:00N 05°37' E 000°07'4 8.6
2017-Oct-27 04:30N 05°33' E 000°08'4 8.6
2017-Oct-27 04:00N 05°29' E 000°09'0 0.8
2017-Oct-27 03:30N 05°28' E 000°09'0 0.3
2017-Oct-27 03:00N 05°28' E 000°09'0 0.3
2017-Oct-27 02:30N 05°28' E 000°09'0 0.3
2017-Oct-27 02:00N 05°28' E 000°09'0 0.3
2017-Oct-27 01:30N 05°28' E 000°09'0 0.2
2017-Oct-27 01:00N 05°28' E 000°09'0 0.3
2017-Oct-27 00:30N 05°28' E 000°08'0 0.2
2017-Oct-27 00:00N 05°28' E 000°08'3 6.7
2017-Oct-26 23:30N 05°26' E 000°05'5 9.8
2017-Oct-26 23:01N 05°22' E 000°03'510.1
2017-Oct-26 22:30N 05°17' E 000°00'711.4
2017-Oct-26 21:52N 05°12' W 000°04'  
Track history (hours):
 
Tides and Currents Weather Stations Pressure Air Temp Water Temp Dewpoint Dewpoint Depression Visibility Wind Speed Wind Dir Waves Ship Positions

Sankofa

Last reported at 2017-Nov-02 08:31 UTC. Time now 2017-Nov-19 01:14 UTC.
Position N 05°21' W 000°27'.
Warning: this ship's position is 16 days out of date.

Length 57 m; draft 5.2 m.

Type: Fishing. MMSI: 627163000.

Date/timePositionNaut miles runAvg speedWind from/ knotsBaromVisibWave heightAir tempDewpointWater temp
2017-Nov-02 08:31N 05°21' W 000°27'0 0.4
2017-Nov-02 08:20N 05°21' W 000°27'0 0.9
2017-Nov-02 07:59N 05°22' W 000°27'0 0.2
2017-Nov-02 07:22N 05°22' W 000°27'0 0.5
2017-Nov-02 07:00N 05°22' W 000°27'1 1.8
2017-Nov-02 06:28N 05°23' W 000°26'2 4.1
2017-Nov-02 05:57N 05°24' W 000°25'1 2.7
2017-Nov-02 05:27N 05°23' W 000°24'2 3.1
2017-Nov-02 04:50N 05°21' W 000°24'0 0.2
2017-Nov-02 03:38N 05°22' W 000°24'0 0.1
2017-Nov-02 03:19N 05°22' W 000°24'0 0.2
2017-Nov-02 03:00N 05°22' W 000°24'0 0.0
2017-Nov-02 02:13N 05°22' W 000°24'0 0.5
2017-Nov-02 02:00N 05°22' W 000°24'  
2017-Oct-29 14:48N 05°13' E 000°12'3 9.2
2017-Oct-29 14:30N 05°15' E 000°11'4 8.5
2017-Oct-29 14:01N 05°18' E 000°08'5 9.1
2017-Oct-29 13:31N 05°22' E 000°06'5 9.3
2017-Oct-29 13:01N 05°26' E 000°04'5 9.4
2017-Oct-29 12:30N 05°31' E 000°01'5 9.3
2017-Oct-29 12:00N 05°35' W 000°01'0 0.7
2017-Oct-29 11:31N 05°35' W 000°01'1 1.1
2017-Oct-29 11:01N 05°34' W 000°01'1 1.3
2017-Oct-29 10:30N 05°34' W 000°02'1 1.8
2017-Oct-29 10:01N 05°35' W 000°01'1 1.4
2017-Oct-29 09:30N 05°34' W 000°02'0 0.3
2017-Oct-29 09:01N 05°34' W 000°01'0 0.9
2017-Oct-29 08:31N 05°35' W 000°01'4 8.3
2017-Oct-29 08:01N 05°37' E 000°03'1 1.3
2017-Oct-29 07:31N 05°37' E 000°03'3 6.0
2017-Oct-29 07:00N 05°38' E 000°06'1 2.6
2017-Oct-29 06:30N 05°38' E 000°07'1 1.2
2017-Oct-29 06:00N 05°38' E 000°08'1 1.4
2017-Oct-29 05:31N 05°38' E 000°08'4 8.9
2017-Oct-29 05:01N 05°33' E 000°08'1 2.3
2017-Oct-29 04:31N 05°32' E 000°09'0 0.5
2017-Oct-29 04:00N 05°32' E 000°09'12 0.3
2017-Oct-27 12:02N 05°35' E 000°21'0 9.4
2017-Oct-27 11:59N 05°36' E 000°21'4 9.4
2017-Oct-27 11:30N 05°39' E 000°17'4 8.9
2017-Oct-27 11:01N 05°41' E 000°14'4 8.9
2017-Oct-27 10:30N 05°40' E 000°10'5 9.1
2017-Oct-27 10:00N 05°38' E 000°06'4 8.1
2017-Oct-27 09:31N 05°38' E 000°02'1 2.8
2017-Oct-27 09:00N 05°37' E 000°03'4 7.5
2017-Oct-27 08:30N 05°40' E 000°06'0 0.4
2017-Oct-27 08:00N 05°40' E 000°06'3 5.8
2017-Oct-27 07:30N 05°37' E 000°05'1 1.9
2017-Oct-27 07:00N 05°37' E 000°04'3 6.4
2017-Oct-27 06:30N 05°39' E 000°07'0 0.1
2017-Oct-27 06:00N 05°39' E 000°07'0 0.5
2017-Oct-27 05:30N 05°39' E 000°07'2 3.1
2017-Oct-27 05:00N 05°37' E 000°07'4 8.6
2017-Oct-27 04:30N 05°33' E 000°08'4 8.6
2017-Oct-27 04:00N 05°29' E 000°09'0 0.8
2017-Oct-27 03:30N 05°28' E 000°09'0 0.3
2017-Oct-27 03:00N 05°28' E 000°09'0 0.3
2017-Oct-27 02:30N 05°28' E 000°09'0 0.3
2017-Oct-27 02:00N 05°28' E 000°09'0 0.3
2017-Oct-27 01:30N 05°28' E 000°09'0 0.2
2017-Oct-27 01:00N 05°28' E 000°09'0 0.3
2017-Oct-27 00:30N 05°28' E 000°08'0 0.2
2017-Oct-27 00:00N 05°28' E 000°08'3 6.7
2017-Oct-26 23:30N 05°26' E 000°05'5 9.8
2017-Oct-26 23:01N 05°22' E 000°03'510.1
2017-Oct-26 22:30N 05°17' E 000°00'711.4
2017-Oct-26 21:52N 05°12' W 000°04'  

Dump ship's entire track history